sensor_id;sensor_type;location;lat;lon;timestamp;P1;durP1;ratioP1;P2;durP2;ratioP2
71083;SDS011;58741;52.672;13.548;2023-07-16T14:40:54;1.00;;;0.80;;
71083;SDS011;58741;52.672;13.548;2023-07-16T14:43:20;0.80;;;0.80;;
71083;SDS011;58741;52.672;13.548;2023-07-16T14:45:46;0.68;;;0.68;;
71083;SDS011;58741;52.672;13.548;2023-07-16T14:48:11;0.68;;;0.68;;
71083;SDS011;58741;52.672;13.548;2023-07-16T14:50:37;0.80;;;0.75;;
71083;SDS011;58741;52.672;13.548;2023-07-16T14:53:02;0.70;;;0.65;;
71083;SDS011;58741;52.672;13.548;2023-07-16T14:55:29;0.82;;;0.60;;
71083;SDS011;58741;52.672;13.548;2023-07-16T14:57:55;0.60;;;0.60;;
71083;SDS011;58741;52.672;13.548;2023-07-16T15:00:20;4.57;;;0.73;;
71083;SDS011;58741;52.672;13.548;2023-07-16T15:02:47;0.63;;;0.60;;
71083;SDS011;58741;52.672;13.548;2023-07-16T15:05:13;0.68;;;0.68;;
71083;SDS011;58741;52.672;13.548;2023-07-16T15:07:38;0.90;;;0.80;;
71083;SDS011;58741;52.672;13.548;2023-07-16T15:10:04;0.68;;;0.68;;
71083;SDS011;58741;52.672;13.548;2023-07-16T15:12:31;0.70;;;0.70;;
71083;SDS011;58741;52.672;13.548;2023-07-16T15:14:56;1.17;;;1.00;;
71083;SDS011;58741;52.672;13.548;2023-07-16T15:17:23;0.90;;;0.75;;
71083;SDS011;58741;52.672;13.548;2023-07-16T15:19:49;2.75;;;0.85;;
71083;SDS011;58741;52.672;13.548;2023-07-16T15:22:15;0.65;;;0.60;;
71083;SDS011;58741;52.672;13.548;2023-07-16T15:24:45;0.90;;;0.68;;
71083;SDS011;58741;52.672;13.548;2023-07-16T15:27:11;1.33;;;0.80;;
71083;SDS011;58741;52.672;13.548;2023-07-16T15:29:38;0.70;;;0.70;;
71083;SDS011;58741;52.672;13.548;2023-07-16T15:32:04;0.80;;;0.55;;
71083;SDS011;58741;52.672;13.548;2023-07-16T15:34:30;0.80;;;0.80;;
71083;SDS011;58741;52.672;13.548;2023-07-16T15:36:56;0.57;;;0.57;;
71083;SDS011;58741;52.672;13.548;2023-07-16T15:39:21;1.60;;;0.70;;
71083;SDS011;58741;52.672;13.548;2023-07-16T15:41:47;1.50;;;0.82;;
71083;SDS011;58741;52.672;13.548;2023-07-16T15:44:16;1.80;;;1.00;;
71083;SDS011;58741;52.672;13.548;2023-07-16T15:46:41;0.85;;;0.80;;
71083;SDS011;58741;52.672;13.548;2023-07-16T15:49:07;1.38;;;0.73;;
71083;SDS011;58741;52.672;13.548;2023-07-16T15:51:33;0.90;;;0.75;;
71083;SDS011;58741;52.672;13.548;2023-07-16T15:54:01;2.00;;;1.20;;
71083;SDS011;58741;52.672;13.548;2023-07-16T15:56:27;5.32;;;1.00;;
71083;SDS011;58741;52.672;13.548;2023-07-16T15:58:52;0.93;;;0.90;;
71083;SDS011;58741;52.672;13.548;2023-07-16T16:01:18;0.90;;;0.70;;
71083;SDS011;58741;52.672;13.548;2023-07-16T16:03:43;0.70;;;0.70;;
71083;SDS011;58741;52.672;13.548;2023-07-16T16:06:10;0.95;;;0.82;;
71083;SDS011;58741;52.672;13.548;2023-07-16T16:08:36;2.25;;;0.85;;
71083;SDS011;58741;52.672;13.548;2023-07-16T16:11:02;2.20;;;1.27;;
71083;SDS011;58741;52.672;13.548;2023-07-16T16:13:28;17.25;;;7.25;;
71083;SDS011;58741;52.672;13.548;2023-07-16T16:15:54;9.85;;;6.97;;
71083;SDS011;58741;52.672;13.548;2023-07-16T16:18:21;6.65;;;4.10;;
71083;SDS011;58741;52.672;13.548;2023-07-16T16:20:47;2.83;;;2.55;;
71083;SDS011;58741;52.672;13.548;2023-07-16T16:23:13;1.80;;;1.23;;
71083;SDS011;58741;52.672;13.548;2023-07-16T16:25:39;0.73;;;0.73;;
71083;SDS011;58741;52.672;13.548;2023-07-16T16:28:05;1.75;;;0.70;;
71083;SDS011;58741;52.672;13.548;2023-07-16T16:30:32;3.45;;;1.02;;
71083;SDS011;58741;52.672;13.548;2023-07-16T16:32:59;0.60;;;0.60;;
71083;SDS011;58741;52.672;13.548;2023-07-16T16:35:27;0.73;;;0.70;;
71083;SDS011;58741;52.672;13.548;2023-07-16T16:37:54;0.73;;;0.73;;
71083;SDS011;58741;52.672;13.548;2023-07-16T16:40:20;1.30;;;0.82;;
71083;SDS011;58741;52.672;13.548;2023-07-16T16:42:46;0.80;;;0.80;;
71083;SDS011;58741;52.672;13.548;2023-07-16T16:45:12;0.77;;;0.70;;
71083;SDS011;58741;52.672;13.548;2023-07-16T16:47:38;0.70;;;0.70;;
71083;SDS011;58741;52.672;13.548;2023-07-16T16:50:05;1.00;;;0.70;;
71083;SDS011;58741;52.672;13.548;2023-07-16T16:52:32;0.60;;;0.60;;
71083;SDS011;58741;52.672;13.548;2023-07-16T16:54:58;0.98;;;0.75;;
71083;SDS011;58741;52.672;13.548;2023-07-16T16:57:25;0.57;;;0.57;;
71083;SDS011;58741;52.672;13.548;2023-07-16T16:59:51;0.98;;;0.68;;
71083;SDS011;58741;52.672;13.548;2023-07-16T17:02:17;2.92;;;0.60;;
71083;SDS011;58741;52.672;13.548;2023-07-16T17:04:44;0.50;;;0.50;;
71083;SDS011;58741;52.672;13.548;2023-07-16T17:07:10;0.30;;;0.30;;
71083;SDS011;58741;52.672;13.548;2023-07-16T17:09:36;0.40;;;0.40;;
71083;SDS011;58741;52.672;13.548;2023-07-16T17:12:02;0.75;;;0.50;;
71083;SDS011;58741;52.672;13.548;2023-07-16T17:14:28;0.68;;;0.60;;
71083;SDS011;58741;52.672;13.548;2023-07-16T17:16:53;0.73;;;0.68;;
71083;SDS011;58741;52.672;13.548;2023-07-16T17:19:19;0.40;;;0.40;;
71083;SDS011;58741;52.672;13.548;2023-07-16T17:21:46;0.75;;;0.57;;
71083;SDS011;58741;52.672;13.548;2023-07-16T17:24:12;1.90;;;0.70;;
71083;SDS011;58741;52.672;13.548;2023-07-16T17:26:38;3.40;;;0.73;;
71083;SDS011;58741;52.672;13.548;2023-07-16T17:29:04;0.40;;;0.40;;
71083;SDS011;58741;52.672;13.548;2023-07-16T17:31:30;0.65;;;0.50;;
71083;SDS011;58741;52.672;13.548;2023-07-16T17:33:57;0.75;;;0.50;;
71083;SDS011;58741;52.672;13.548;2023-07-16T17:36:22;0.50;;;0.50;;
71083;SDS011;58741;52.672;13.548;2023-07-16T17:38:48;2.25;;;0.60;;
71083;SDS011;58741;52.672;13.548;2023-07-16T17:41:14;1.17;;;0.77;;
71083;SDS011;58741;52.672;13.548;2023-07-16T17:43:40;0.60;;;0.60;;
71083;SDS011;58741;52.672;13.548;2023-07-16T17:46:05;1.17;;;0.85;;
71083;SDS011;58741;52.672;13.548;2023-07-16T17:48:31;1.15;;;0.60;;
71083;SDS011;58741;52.672;13.548;2023-07-16T17:50:57;0.50;;;0.50;;
71083;SDS011;58741;52.672;13.548;2023-07-16T17:53:23;0.95;;;0.55;;
71083;SDS011;58741;52.672;13.548;2023-07-16T17:55:48;0.52;;;0.40;;
71083;SDS011;58741;52.672;13.548;2023-07-16T17:58:14;1.73;;;0.50;;
71083;SDS011;58741;52.672;13.548;2023-07-16T18:00:41;0.73;;;0.73;;
71083;SDS011;58741;52.672;13.548;2023-07-16T18:03:06;1.00;;;0.45;;
71083;SDS011;58741;52.672;13.548;2023-07-16T18:05:32;0.40;;;0.40;;
71083;SDS011;58741;52.672;13.548;2023-07-16T18:07:58;0.32;;;0.32;;
71083;SDS011;58741;52.672;13.548;2023-07-16T18:10:23;0.77;;;0.60;;
71083;SDS011;58741;52.672;13.548;2023-07-16T18:12:49;0.63;;;0.55;;
71083;SDS011;58741;52.672;13.548;2023-07-16T18:15:15;0.40;;;0.40;;
71083;SDS011;58741;52.672;13.548;2023-07-16T18:17:41;1.23;;;0.60;;
71083;SDS011;58741;52.672;13.548;2023-07-16T18:20:09;1.48;;;0.50;;
71083;SDS011;58741;52.672;13.548;2023-07-16T18:22:35;0.40;;;0.40;;
71083;SDS011;58741;52.672;13.548;2023-07-16T18:25:01;0.43;;;0.40;;
71083;SDS011;58741;52.672;13.548;2023-07-16T18:27:27;0.88;;;0.43;;
71083;SDS011;58741;52.672;13.548;2023-07-16T18:29:54;0.70;;;0.47;;
71083;SDS011;58741;52.672;13.548;2023-07-16T18:32:23;0.60;;;0.60;;
71083;SDS011;58741;52.672;13.548;2023-07-16T18:34:48;0.30;;;0.30;;
71083;SDS011;58741;52.672;13.548;2023-07-16T18:37:14;1.35;;;0.57;;
71083;SDS011;58741;52.672;13.548;2023-07-16T18:39:40;1.15;;;0.77;;
71083;SDS011;58741;52.672;13.548;2023-07-16T18:42:06;0.35;;;0.35;;
71083;SDS011;58741;52.672;13.548;2023-07-16T18:44:32;0.85;;;0.47;;
71083;SDS011;58741;52.672;13.548;2023-07-16T18:46:57;3.03;;;0.52;;
71083;SDS011;58741;52.672;13.548;2023-07-16T18:49:23;0.45;;;0.40;;
71083;SDS011;58741;52.672;13.548;2023-07-16T18:51:48;0.50;;;0.50;;
71083;SDS011;58741;52.672;13.548;2023-07-16T18:54:14;0.43;;;0.43;;
71083;SDS011;58741;52.672;13.548;2023-07-16T18:56:39;0.30;;;0.30;;
71083;SDS011;58741;52.672;13.548;2023-07-16T18:59:06;0.63;;;0.38;;
71083;SDS011;58741;52.672;13.548;2023-07-16T19:01:32;0.45;;;0.45;;
71083;SDS011;58741;52.672;13.548;2023-07-16T19:03:57;0.57;;;0.40;;
71083;SDS011;58741;52.672;13.548;2023-07-16T19:06:23;0.82;;;0.45;;
71083;SDS011;58741;52.672;13.548;2023-07-16T19:08:48;0.70;;;0.40;;
71083;SDS011;58741;52.672;13.548;2023-07-16T19:11:14;0.75;;;0.68;;
71083;SDS011;58741;52.672;13.548;2023-07-16T19:13:39;0.73;;;0.63;;
71083;SDS011;58741;52.672;13.548;2023-07-16T19:16:05;0.40;;;0.40;;
71083;SDS011;58741;52.672;13.548;2023-07-16T19:18:30;0.38;;;0.38;;
71083;SDS011;58741;52.672;13.548;2023-07-16T19:20:57;0.77;;;0.52;;
71083;SDS011;58741;52.672;13.548;2023-07-16T19:23:23;1.02;;;0.55;;
71083;SDS011;58741;52.672;13.548;2023-07-16T19:25:49;0.90;;;0.55;;
71083;SDS011;58741;52.672;13.548;2023-07-16T19:28:15;0.50;;;0.40;;
71083;SDS011;58741;52.672;13.548;2023-07-16T19:30:41;0.45;;;0.43;;
71083;SDS011;58741;52.672;13.548;2023-07-16T19:33:07;0.20;;;0.20;;
71083;SDS011;58741;52.672;13.548;2023-07-16T19:35:33;0.55;;;0.50;;
71083;SDS011;58741;52.672;13.548;2023-07-16T19:37:59;1.02;;;0.60;;
71083;SDS011;58741;52.672;13.548;2023-07-16T19:40:25;0.45;;;0.43;;
71083;SDS011;58741;52.672;13.548;2023-07-16T19:42:51;0.30;;;0.30;;
71083;SDS011;58741;52.672;13.548;2023-07-16T19:45:16;0.32;;;0.30;;
71083;SDS011;58741;52.672;13.548;2023-07-16T19:47:42;2.85;;;0.57;;
71083;SDS011;58741;52.672;13.548;2023-07-16T19:50:08;1.05;;;0.55;;
71083;SDS011;58741;52.672;13.548;2023-07-16T19:52:34;0.40;;;0.30;;
71083;SDS011;58741;52.672;13.548;2023-07-16T19:54:59;0.63;;;0.50;;
71083;SDS011;58741;52.672;13.548;2023-07-16T19:57:29;0.40;;;0.40;;
71083;SDS011;58741;52.672;13.548;2023-07-16T19:59:59;0.30;;;0.30;;
71083;SDS011;58741;52.672;13.548;2023-07-16T20:02:38;0.80;;;0.50;;
71083;SDS011;58741;52.672;13.548;2023-07-16T20:05:04;1.27;;;0.60;;
71083;SDS011;58741;52.672;13.548;2023-07-16T20:07:30;0.43;;;0.43;;
71083;SDS011;58741;52.672;13.548;2023-07-16T20:10:00;1.35;;;0.57;;
71083;SDS011;58741;52.672;13.548;2023-07-16T20:12:30;0.55;;;0.55;;
71083;SDS011;58741;52.672;13.548;2023-07-16T20:14:56;0.40;;;0.40;;
71083;SDS011;58741;52.672;13.548;2023-07-16T20:17:21;1.65;;;0.77;;
71083;SDS011;58741;52.672;13.548;2023-07-16T20:19:47;0.20;;;0.20;;
71083;SDS011;58741;52.672;13.548;2023-07-16T20:22:13;0.55;;;0.40;;
71083;SDS011;58741;52.672;13.548;2023-07-16T20:24:39;0.45;;;0.45;;
71083;SDS011;58741;52.672;13.548;2023-07-16T20:27:04;0.50;;;0.50;;
71083;SDS011;58741;52.672;13.548;2023-07-16T20:29:30;0.98;;;0.63;;
71083;SDS011;58741;52.672;13.548;2023-07-16T20:31:56;0.75;;;0.40;;
71083;SDS011;58741;52.672;13.548;2023-07-16T20:34:21;0.50;;;0.40;;
71083;SDS011;58741;52.672;13.548;2023-07-16T20:36:47;0.85;;;0.50;;
71083;SDS011;58741;52.672;13.548;2023-07-16T20:39:13;0.30;;;0.30;;
71083;SDS011;58741;52.672;13.548;2023-07-16T20:41:39;0.35;;;0.35;;
71083;SDS011;58741;52.672;13.548;2023-07-16T20:44:05;1.00;;;0.65;;
71083;SDS011;58741;52.672;13.548;2023-07-16T20:46:30;4.30;;;0.52;;
71083;SDS011;58741;52.672;13.548;2023-07-16T20:48:56;0.40;;;0.40;;
71083;SDS011;58741;52.672;13.548;2023-07-16T20:51:21;0.40;;;0.40;;
71083;SDS011;58741;52.672;13.548;2023-07-16T20:53:47;1.10;;;0.68;;
71083;SDS011;58741;52.672;13.548;2023-07-16T20:56:13;0.40;;;0.40;;
71083;SDS011;58741;52.672;13.548;2023-07-16T20:58:40;0.65;;;0.40;;
71083;SDS011;58741;52.672;13.548;2023-07-16T21:01:06;0.50;;;0.50;;
71083;SDS011;58741;52.672;13.548;2023-07-16T21:03:31;0.60;;;0.50;;
71083;SDS011;58741;52.672;13.548;2023-07-16T21:05:57;0.65;;;0.52;;
71083;SDS011;58741;52.672;13.548;2023-07-16T21:08:23;0.52;;;0.52;;
71083;SDS011;58741;52.672;13.548;2023-07-16T21:10:49;1.23;;;0.70;;
71083;SDS011;58741;52.672;13.548;2023-07-16T21:13:14;0.65;;;0.50;;
71083;SDS011;58741;52.672;13.548;2023-07-16T21:15:40;1.48;;;0.60;;
71083;SDS011;58741;52.672;13.548;2023-07-16T21:18:06;0.50;;;0.50;;
71083;SDS011;58741;52.672;13.548;2023-07-16T21:20:35;0.40;;;0.40;;
71083;SDS011;58741;52.672;13.548;2023-07-16T21:23:02;0.52;;;0.50;;
71083;SDS011;58741;52.672;13.548;2023-07-16T21:25:28;0.80;;;0.52;;
71083;SDS011;58741;52.672;13.548;2023-07-16T21:28:00;1.35;;;0.70;;
71083;SDS011;58741;52.672;13.548;2023-07-16T21:32:55;0.70;;;0.70;;
71083;SDS011;58741;52.672;13.548;2023-07-16T21:35:21;6.20;;;0.98;;
71083;SDS011;58741;52.672;13.548;2023-07-16T21:37:46;0.88;;;0.65;;
71083;SDS011;58741;52.672;13.548;2023-07-16T21:40:12;0.90;;;0.50;;
71083;SDS011;58741;52.672;13.548;2023-07-16T21:42:40;0.35;;;0.35;;
71083;SDS011;58741;52.672;13.548;2023-07-16T21:45:07;0.50;;;0.40;;
71083;SDS011;58741;52.672;13.548;2023-07-16T21:47:34;0.70;;;0.60;;
71083;SDS011;58741;52.672;13.548;2023-07-16T21:50:00;0.70;;;0.55;;
71083;SDS011;58741;52.672;13.548;2023-07-16T21:52:25;0.70;;;0.70;;
71083;SDS011;58741;52.672;13.548;2023-07-16T21:54:51;4.78;;;0.90;;
71083;SDS011;58741;52.672;13.548;2023-07-16T21:57:17;0.85;;;0.60;;
71083;SDS011;58741;52.672;13.548;2023-07-16T21:59:42;1.17;;;0.68;;
71083;SDS011;58741;52.672;13.548;2023-07-16T22:02:08;0.82;;;0.75;;
71083;SDS011;58741;52.672;13.548;2023-07-16T22:04:33;1.33;;;0.60;;
71083;SDS011;58741;52.672;13.548;2023-07-16T22:06:59;0.50;;;0.50;;
71083;SDS011;58741;52.672;13.548;2023-07-16T22:09:25;1.15;;;0.75;;
71083;SDS011;58741;52.672;13.548;2023-07-16T22:11:51;0.60;;;0.50;;
71083;SDS011;58741;52.672;13.548;2023-07-16T22:14:17;0.40;;;0.40;;
71083;SDS011;58741;52.672;13.548;2023-07-16T22:16:43;1.80;;;0.60;;
71083;SDS011;58741;52.672;13.548;2023-07-16T22:19:09;0.50;;;0.47;;
71083;SDS011;58741;52.672;13.548;2023-07-16T22:21:34;0.77;;;0.60;;
71083;SDS011;58741;52.672;13.548;2023-07-16T22:24:01;0.80;;;0.60;;
71083;SDS011;58741;52.672;13.548;2023-07-16T22:26:27;0.43;;;0.43;;
71083;SDS011;58741;52.672;13.548;2023-07-16T22:28:52;0.60;;;0.50;;
71083;SDS011;58741;52.672;13.548;2023-07-16T22:31:18;0.95;;;0.60;;
71083;SDS011;58741;52.672;13.548;2023-07-16T22:33:44;0.45;;;0.45;;
71083;SDS011;58741;52.672;13.548;2023-07-16T22:36:10;0.63;;;0.55;;
71083;SDS011;58741;52.672;13.548;2023-07-16T22:38:36;4.03;;;0.90;;
71083;SDS011;58741;52.672;13.548;2023-07-16T22:41:02;0.85;;;0.57;;
71083;SDS011;58741;52.672;13.548;2023-07-16T22:43:28;0.95;;;0.80;;
71083;SDS011;58741;52.672;13.548;2023-07-16T22:45:53;1.25;;;0.73;;
71083;SDS011;58741;52.672;13.548;2023-07-16T22:48:19;3.22;;;0.50;;
71083;SDS011;58741;52.672;13.548;2023-07-16T22:50:44;0.50;;;0.50;;
71083;SDS011;58741;52.672;13.548;2023-07-16T22:53:10;1.52;;;0.80;;
71083;SDS011;58741;52.672;13.548;2023-07-16T22:55:36;1.50;;;0.82;;
71083;SDS011;58741;52.672;13.548;2023-07-16T22:58:02;0.82;;;0.63;;
71083;SDS011;58741;52.672;13.548;2023-07-16T23:00:29;0.98;;;0.70;;
71083;SDS011;58741;52.672;13.548;2023-07-16T23:02:55;0.88;;;0.60;;
71083;SDS011;58741;52.672;13.548;2023-07-16T23:05:22;1.50;;;0.55;;
71083;SDS011;58741;52.672;13.548;2023-07-16T23:07:48;0.70;;;0.68;;
71083;SDS011;58741;52.672;13.548;2023-07-16T23:10:14;0.57;;;0.57;;
71083;SDS011;58741;52.672;13.548;2023-07-16T23:12:40;5.10;;;0.68;;
71083;SDS011;58741;52.672;13.548;2023-07-16T23:15:07;0.70;;;0.60;;
71083;SDS011;58741;52.672;13.548;2023-07-16T23:17:33;0.68;;;0.60;;
71083;SDS011;58741;52.672;13.548;2023-07-16T23:19:59;0.47;;;0.47;;
71083;SDS011;58741;52.672;13.548;2023-07-16T23:22:24;0.65;;;0.57;;
71083;SDS011;58741;52.672;13.548;2023-07-16T23:24:50;2.15;;;0.77;;
71083;SDS011;58741;52.672;13.548;2023-07-16T23:27:16;1.00;;;0.80;;
71083;SDS011;58741;52.672;13.548;2023-07-16T23:29:41;1.13;;;0.60;;
71083;SDS011;58741;52.672;13.548;2023-07-16T23:32:07;1.30;;;0.68;;
71083;SDS011;58741;52.672;13.548;2023-07-16T23:34:33;1.40;;;0.70;;
71083;SDS011;58741;52.672;13.548;2023-07-16T23:36:59;1.05;;;0.45;;
71083;SDS011;58741;52.672;13.548;2023-07-16T23:39:25;0.40;;;0.40;;
71083;SDS011;58741;52.672;13.548;2023-07-16T23:41:54;0.55;;;0.50;;
71083;SDS011;58741;52.672;13.548;2023-07-16T23:44:19;1.15;;;0.75;;
71083;SDS011;58741;52.672;13.548;2023-07-16T23:46:45;0.60;;;0.60;;
71083;SDS011;58741;52.672;13.548;2023-07-16T23:49:10;0.47;;;0.40;;
71083;SDS011;58741;52.672;13.548;2023-07-16T23:51:36;0.85;;;0.60;;
71083;SDS011;58741;52.672;13.548;2023-07-16T23:54:01;0.60;;;0.60;;
71083;SDS011;58741;52.672;13.548;2023-07-16T23:56:27;0.73;;;0.50;;
71083;SDS011;58741;52.672;13.548;2023-07-16T23:58:53;2.85;;;0.70;;
